Assumption, Nebraska
Current Conditions -  °F | °C
As of 9:53 PM on Saturday 20 Dec 2014 (Local Time) from KHSI Reporting Station
Haze Haze  
Wind Chill: 26°   Ceiling: Unl
Heat Index: 32°   Visibility: 4mi
Dew Point: 31°   Wind: 6mph
Humidity: 96%   Direction: 160°SSE
Pressure: 29.94"   Gusts: NA
Location:  40.5679°N, 98.5535°W
Report Text: KHSI 210353Z AUTO 16005KT 4SM BR CLR 00/M01 A2994 RMK AO2 SLP158 T00001006
Loading
Personal Weather Stations






























Interactive Weather Map New forecast layout! Learn more

10-Day Weather Forecast

Advertisements
Track Severe Weather on mobile